Time;durP1;ratioP1;P1;durP2;ratioP2;P2;SDS_P1;SDS_P2;PMS_P1;PMS_P2;Temp;Humidity;BMP_temperature;BMP_pressure;BME280_temperature;BME280_humidity;BME280_pressure;Samples;Min_cycle;Max_cycle;Signal;HPM_P1;HPM_P2
2023/05/13 00:01:37;;;;;;;12.60;8.17;;;10.70;99.90;;;;;;5040223;28;20524;-69
2023/05/13 00:04:05;;;;;;;11.73;9.33;;;10.80;99.90;;;;;;5034958;28;20833;-70
2023/05/13 00:06:32;;;;;;;11.63;9.47;;;10.80;99.90;;;;;;5032151;28;20452;-69
2023/05/13 00:09:00;;;;;;;10.43;8.23;;;10.80;99.90;;;;;;5036952;28;20580;-70
2023/05/13 00:11:27;;;;;;;11.60;9.30;;;10.80;99.90;;;;;;5035894;28;20477;-69
2023/05/13 00:13:53;;;;;;;15.53;10.20;;;10.80;99.90;;;;;;5032216;28;21050;-70
2023/05/13 00:16:22;;;;;;;12.80;9.70;;;10.80;99.90;;;;;;5032213;28;20508;-70
2023/05/13 00:18:50;;;;;;;11.67;9.70;;;10.80;99.90;;;;;;5033895;28;20471;-69
2023/05/13 00:21:16;;;;;;;18.30;10.67;;;10.80;99.90;;;;;;5032183;28;20469;-69
2023/05/13 00:23:43;;;;;;;16.57;9.90;;;10.80;99.90;;;;;;5032698;28;20507;-70
2023/05/13 00:26:11;;;;;;;23.47;10.27;;;10.90;99.90;;;;;;5044057;28;20946;-70
2023/05/13 00:28:37;;;;;;;14.30;8.80;;;10.90;99.90;;;;;;5031514;28;20485;-70
2023/05/13 00:31:04;;;;;;;9.43;8.53;;;10.90;99.90;;;;;;5038536;28;20519;-70
2023/05/13 00:33:31;;;;;;;14.90;9.23;;;10.90;99.90;;;;;;5035725;28;20457;-70
2023/05/13 00:35:57;;;;;;;13.13;10.33;;;10.90;99.90;;;;;;5040432;28;20451;-69
2023/05/13 00:38:24;;;;;;;16.20;9.20;;;10.90;99.90;;;;;;5033262;28;20454;-70
2023/05/13 00:40:51;;;;;;;12.40;8.93;;;10.90;99.90;;;;;;5039848;28;20503;-70
2023/05/13 00:43:18;;;;;;;8.67;7.00;;;10.90;99.90;;;;;;5031793;28;20457;-69
2023/05/13 00:45:45;;;;;;;10.57;8.30;;;10.90;99.90;;;;;;5031516;28;20509;-70
2023/05/13 00:48:12;;;;;;;9.30;8.13;;;10.90;99.90;;;;;;5033520;28;20525;-70
2023/05/13 00:50:41;;;;;;;10.30;8.43;;;10.90;99.90;;;;;;5031428;28;20511;-70
2023/05/13 00:53:07;;;;;;;8.50;7.80;;;10.90;99.90;;;;;;5035623;28;20457;-69
2023/05/13 00:55:34;;;;;;;8.90;7.23;;;10.90;99.90;;;;;;5030792;28;21004;-69
2023/05/13 00:58:01;;;;;;;14.93;8.37;;;10.90;99.90;;;;;;5035633;28;20461;-70
2023/05/13 01:00:30;;;;;;;13.17;8.40;;;10.90;99.90;;;;;;5043153;28;20466;-70
2023/05/13 01:03:10;;;;;;;11.20;8.60;;;10.90;99.90;;;;;;5034910;28;20449;-70
2023/05/13 01:05:44;;;;;;;11.27;7.87;;;10.90;99.90;;;;;;5036883;28;20518;-70
2023/05/13 01:08:21;;;;;;;16.40;8.60;;;10.90;99.90;;;;;;5036795;28;20568;-70
2023/05/13 01:10:53;;;;;;;12.23;9.10;;;10.90;99.90;;;;;;5031234;28;20523;-70
2023/05/13 01:13:24;;;;;;;9.80;8.90;;;11.00;99.90;;;;;;5037996;28;20502;-70
2023/05/13 01:15:57;;;;;;;13.77;10.00;;;11.00;99.90;;;;;;5031452;28;20493;-69
2023/05/13 01:18:28;;;;;;;10.50;9.40;;;10.90;99.90;;;;;;5042488;28;20454;-70
2023/05/13 01:20:56;;;;;;;14.30;9.13;;;10.90;99.90;;;;;;5039083;28;20563;-70
2023/05/13 01:23:24;;;;;;;11.97;9.30;;;10.90;99.90;;;;;;5045889;28;20453;-70
2023/05/13 01:25:51;;;;;;;10.40;9.30;;;10.90;99.90;;;;;;5031869;28;20453;-69
2023/05/13 01:28:17;;;;;;;15.80;8.90;;;10.90;99.90;;;;;;5030826;28;21064;-70
2023/05/13 01:30:45;;;;;;;15.90;9.07;;;10.80;99.90;;;;;;5037621;28;20893;-70
2023/05/13 01:33:12;;;;;;;12.30;9.23;;;10.80;99.90;;;;;;5037620;28;20461;-70
2023/05/13 01:35:39;;;;;;;10.90;8.50;;;10.70;99.90;;;;;;5033470;28;20511;-70
2023/05/13 01:38:07;;;;;;;11.20;9.37;;;10.70;99.90;;;;;;5030693;28;20856;-70
2023/05/13 01:40:35;;;;;;;11.50;9.23;;;10.70;99.90;;;;;;5030813;28;20496;-70
2023/05/13 01:43:02;;;;;;;10.70;9.60;;;10.80;99.90;;;;;;5034576;28;20450;-70
2023/05/13 01:45:29;;;;;;;11.00;9.50;;;10.80;99.90;;;;;;5030718;28;20520;-70
2023/05/13 01:47:56;;;;;;;15.53;9.20;;;10.80;99.90;;;;;;5036282;28;20950;-70
2023/05/13 01:50:22;;;;;;;10.20;8.60;;;10.80;99.90;;;;;;5035458;28;20530;-70
2023/05/13 01:52:49;;;;;;;12.33;8.50;;;10.80;99.90;;;;;;5030607;28;21022;-70
2023/05/13 01:55:16;;;;;;;11.83;8.87;;;10.80;99.90;;;;;;5042360;28;20527;-70
2023/05/13 01:57:43;;;;;;;11.30;8.83;;;10.90;99.90;;;;;;5029975;28;20485;-70
2023/05/13 02:00:11;;;;;;;10.80;8.90;;;10.80;99.90;;;;;;5030603;28;20528;-70
2023/05/13 02:02:38;;;;;;;14.90;8.73;;;10.80;99.90;;;;;;5043229;28;20457;-70
2023/05/13 02:05:05;;;;;;;12.50;9.00;;;10.80;99.90;;;;;;5034548;28;20861;-70
2023/05/13 02:07:33;;;;;;;9.97;9.07;;;10.80;99.90;;;;;;5039209;28;20454;-70
2023/05/13 02:10:00;;;;;;;9.70;8.70;;;10.80;99.90;;;;;;5033715;28;21005;-69
2023/05/13 02:12:27;;;;;;;13.20;9.17;;;10.80;99.90;;;;;;5030138;28;21198;-70
2023/05/13 02:14:55;;;;;;;10.00;8.73;;;10.80;99.90;;;;;;5030371;28;20533;-70
2023/05/13 02:17:22;;;;;;;10.43;9.10;;;10.80;99.90;;;;;;5036495;28;20465;-69
2023/05/13 02:19:49;;;;;;;13.23;9.50;;;10.80;99.90;;;;;;5031629;28;20453;-70
2023/05/13 02:22:16;;;;;;;11.67;8.97;;;10.80;99.90;;;;;;5033849;28;20457;-70
2023/05/13 02:24:42;;;;;;;11.40;9.50;;;10.70;99.90;;;;;;5032461;28;20559;-70
2023/05/13 02:27:11;;;;;;;13.63;9.23;;;10.80;99.90;;;;;;5044372;28;20457;-70
2023/05/13 02:29:38;;;;;;;10.93;8.30;;;10.80;99.90;;;;;;5046165;28;20517;-69
2023/05/13 02:32:07;;;;;;;15.70;8.83;;;10.80;99.90;;;;;;5040975;28;20479;-70
2023/05/13 02:34:33;;;;;;;10.80;9.70;;;10.80;99.90;;;;;;5042178;28;20452;-69
2023/05/13 02:37:00;;;;;;;14.73;9.83;;;10.80;99.90;;;;;;5034250;28;20453;-69
2023/05/13 02:39:26;;;;;;;13.17;10.30;;;10.80;99.90;;;;;;5046842;28;20446;-70
2023/05/13 02:41:53;;;;;;;11.13;9.37;;;10.80;99.90;;;;;;5034032;28;20469;-70
2023/05/13 02:44:20;;;;;;;11.00;9.57;;;10.80;99.90;;;;;;5034186;28;20453;-70
2023/05/13 02:46:46;;;;;;;11.93;9.30;;;10.80;99.90;;;;;;5034321;28;20899;-70
2023/05/13 02:49:14;;;;;;;18.83;8.90;;;10.80;99.90;;;;;;5040819;28;20543;-70
2023/05/13 02:51:41;;;;;;;12.60;9.30;;;10.80;99.90;;;;;;5033655;28;20827;-70
2023/05/13 02:54:07;;;;;;;13.67;10.40;;;10.70;99.90;;;;;;5041224;28;20449;-69
2023/05/13 02:56:34;;;;;;;12.40;10.17;;;10.60;99.90;;;;;;5040755;28;20461;-69
2023/05/13 02:59:00;;;;;;;12.77;9.10;;;10.60;99.90;;;;;;5033593;28;20457;-70
2023/05/13 03:01:27;;;;;;;14.97;10.47;;;10.60;99.90;;;;;;5033757;28;20474;-69
2023/05/13 03:03:54;;;;;;;12.90;11.00;;;10.50;99.90;;;;;;5033525;28;20945;-70
2023/05/13 03:06:22;;;;;;;18.80;11.20;;;10.50;99.90;;;;;;5039367;28;20462;-70
2023/05/13 03:08:48;;;;;;;12.17;10.97;;;10.50;99.90;;;;;;5033249;28;21005;-70
2023/05/13 03:11:15;;;;;;;12.83;10.23;;;10.40;99.90;;;;;;5033429;28;20534;-70
2023/05/13 03:13:42;;;;;;;12.33;9.83;;;10.40;99.90;;;;;;5034193;28;20516;-70
2023/05/13 03:16:08;;;;;;;12.33;9.50;;;10.40;99.90;;;;;;5037265;28;20452;-70
2023/05/13 03:18:35;;;;;;;15.87;11.60;;;10.40;99.90;;;;;;5040028;28;20458;-70
2023/05/13 03:21:02;;;;;;;11.47;10.33;;;10.30;99.90;;;;;;5033132;28;20519;-70
2023/05/13 03:23:30;;;;;;;20.37;12.67;;;10.30;99.90;;;;;;5040244;28;20939;-70
2023/05/13 03:25:56;;;;;;;16.67;12.67;;;10.30;99.90;;;;;;5033952;28;20461;-70
2023/05/13 03:28:23;;;;;;;15.23;11.40;;;10.20;99.90;;;;;;5036150;28;20507;-70
2023/05/13 03:30:50;;;;;;;14.13;11.00;;;10.20;99.90;;;;;;5040988;28;20539;-69
2023/05/13 03:33:17;;;;;;;22.00;12.47;;;10.20;99.90;;;;;;5036300;28;20450;-70
2023/05/13 03:35:43;;;;;;;16.80;11.73;;;10.10;99.90;;;;;;5033098;28;20509;-69
2023/05/13 03:38:10;;;;;;;15.73;11.87;;;10.10;99.90;;;;;;5039819;28;20458;-69
2023/05/13 03:40:38;;;;;;;16.93;12.60;;;10.10;99.90;;;;;;5032747;28;20882;-69
2023/05/13 03:43:05;;;;;;;14.73;11.60;;;10.10;99.90;;;;;;5049259;28;20951;-70
2023/05/13 03:45:31;;;;;;;16.57;12.30;;;10.00;99.90;;;;;;5039930;28;20934;-70
2023/05/13 03:47:58;;;;;;;22.63;12.27;;;10.00;99.90;;;;;;5047045;28;20456;-69
2023/05/13 03:50:25;;;;;;;15.90;11.73;;;10.00;99.90;;;;;;5032769;28;20912;-70
2023/05/13 03:52:51;;;;;;;16.77;11.37;;;10.00;99.90;;;;;;5038096;28;20465;-70
2023/05/13 03:55:18;;;;;;;15.97;10.57;;;9.90;99.90;;;;;;5032189;28;20447;-69
2023/05/13 03:57:48;;;;;;;12.80;10.37;;;10.00;99.90;;;;;;5032691;28;20872;-69
2023/05/13 04:00:15;;;;;;;17.87;10.60;;;9.90;99.90;;;;;;5045925;28;20524;-70
2023/05/13 04:02:42;;;;;;;20.10;10.30;;;9.90;99.90;;;;;;5040346;28;20461;-69
2023/05/13 04:05:10;;;;;;;18.03;11.50;;;9.90;99.90;;;;;;5034765;28;20943;-70
2023/05/13 04:07:37;;;;;;;18.10;12.60;;;9.80;99.90;;;;;;5036339;28;20686;-70
2023/05/13 04:10:04;;;;;;;15.80;12.00;;;9.90;99.90;;;;;;5035758;28;20490;-70
2023/05/13 04:12:32;;;;;;;15.87;11.57;;;9.90;99.90;;;;;;5032327;28;20450;-70
2023/05/13 04:15:00;;;;;;;17.30;12.60;;;9.80;99.90;;;;;;5034074;28;20461;-70
2023/05/13 04:17:27;;;;;;;20.47;13.03;;;9.90;99.90;;;;;;5038475;28;20450;-70
2023/05/13 04:19:54;;;;;;;15.43;13.10;;;9.90;99.90;;;;;;5033715;28;21158;-70
2023/05/13 04:22:21;;;;;;;21.80;13.10;;;9.90;99.90;;;;;;5037844;28;20453;-69
2023/05/13 04:24:50;;;;;;;17.83;12.93;;;10.00;99.90;;;;;;5040634;28;20543;-70
2023/05/13 04:27:17;;;;;;;19.77;13.10;;;10.00;99.90;;;;;;5044087;28;20468;-70
2023/05/13 04:29:43;;;;;;;15.20;12.07;;;10.00;99.90;;;;;;5050230;28;20484;-69
2023/05/13 04:32:14;;;;;;;13.33;11.67;;;10.10;99.90;;;;;;5037547;28;20801;-68
2023/05/13 04:34:41;;;;;;;17.40;11.27;;;10.10;99.90;;;;;;5032395;28;20458;-69
2023/05/13 04:37:07;;;;;;;13.07;11.27;;;10.20;99.90;;;;;;5031927;28;20457;-68
2023/05/13 04:39:34;;;;;;;19.10;12.30;;;10.20;99.90;;;;;;5034029;28;20451;-68
2023/05/13 04:42:01;;;;;;;13.70;11.77;;;10.20;99.90;;;;;;5039301;28;20481;-68
2023/05/13 04:44:27;;;;;;;20.10;12.00;;;10.30;99.90;;;;;;5031948;28;20447;-68
2023/05/13 04:46:54;;;;;;;13.67;11.33;;;10.30;99.90;;;;;;5041974;28;20457;-69
2023/05/13 04:49:22;;;;;;;14.00;11.70;;;10.30;99.90;;;;;;5038353;28;20540;-67
2023/05/13 04:51:48;;;;;;;13.50;11.80;;;10.30;99.90;;;;;;5031531;28;20478;-69
2023/05/13 04:54:15;;;;;;;13.27;11.87;;;10.40;99.90;;;;;;5031559;28;20931;-68
2023/05/13 04:56:42;;;;;;;14.37;10.93;;;10.40;99.90;;;;;;5031325;28;20450;-68
2023/05/13 04:59:09;;;;;;;16.93;12.27;;;10.40;99.90;;;;;;5031114;28;20454;-69
2023/05/13 05:01:35;;;;;;;19.27;13.13;;;10.40;99.90;;;;;;5032847;28;21018;-68
2023/05/13 05:04:02;;;;;;;15.27;12.20;;;10.50;99.90;;;;;;5031431;28;20454;-69
2023/05/13 05:06:31;;;;;;;13.03;11.27;;;10.50;99.90;;;;;;5031382;28;20508;-69
2023/05/13 05:08:58;;;;;;;15.37;12.63;;;10.50;99.90;;;;;;5032972;28;20453;-69
2023/05/13 05:11:24;;;;;;;14.57;12.03;;;10.60;99.90;;;;;;5042698;28;20497;-68
2023/05/13 05:13:51;;;;;;;17.30;12.23;;;10.60;99.90;;;;;;5041771;28;20911;-68
2023/05/13 05:16:18;;;;;;;14.43;11.63;;;10.70;99.90;;;;;;5036845;28;20941;-69
2023/05/13 05:18:44;;;;;;;18.40;13.10;;;10.70;99.90;;;;;;5034420;28;20504;-67
2023/05/13 05:21:12;;;;;;;14.53;11.47;;;10.80;99.90;;;;;;5031191;28;20474;-69
2023/05/13 05:23:40;;;;;;;16.90;11.47;;;10.80;99.90;;;;;;5046860;28;21047;-69
2023/05/13 05:26:06;;;;;;;15.53;11.50;;;10.90;99.90;;;;;;5039211;28;20482;-69
2023/05/13 05:28:33;;;;;;;12.83;11.47;;;10.90;99.90;;;;;;5036879;28;20454;-68
2023/05/13 05:31:00;;;;;;;16.77;12.40;;;10.90;99.90;;;;;;5031686;28;20497;-69
2023/05/13 05:33:27;;;;;;;15.13;11.57;;;11.00;99.90;;;;;;5030945;28;20489;-69
2023/05/13 05:35:54;;;;;;;16.20;12.40;;;11.00;99.90;;;;;;5031846;28;20515;-69
2023/05/13 05:38:23;;;;;;;15.03;12.00;;;11.00;99.90;;;;;;5030731;28;20442;-70
2023/05/13 05:40:52;;;;;;;17.53;12.37;;;11.00;99.90;;;;;;5029979;28;20477;-68
2023/05/13 05:43:18;;;;;;;13.07;11.67;;;11.10;99.90;;;;;;5031446;28;20504;-69
2023/05/13 05:45:45;;;;;;;19.00;12.40;;;11.10;99.90;;;;;;5042451;28;20937;-68
2023/05/13 05:48:12;;;;;;;15.63;12.30;;;11.20;99.90;;;;;;5030356;28;20961;-69
2023/05/13 05:50:39;;;;;;;20.20;12.53;;;11.30;99.90;;;;;;5030473;28;20497;-69
2023/05/13 05:53:06;;;;;;;17.33;12.47;;;11.40;99.90;;;;;;5030208;28;20458;-69
2023/05/13 05:55:32;;;;;;;18.00;13.53;;;11.40;99.90;;;;;;5030464;28;20488;-68
2023/05/13 05:58:04;;;;;;;13.83;12.40;;;11.50;99.90;;;;;;5034904;28;21230;-68
2023/05/13 06:00:31;;;;;;;15.57;12.33;;;11.50;99.90;;;;;;5038695;28;20485;-69
2023/05/13 06:02:58;;;;;;;16.00;12.80;;;11.60;99.90;;;;;;5031936;28;20536;-69
2023/05/13 06:05:25;;;;;;;20.17;12.70;;;11.60;99.90;;;;;;5032147;28;20549;-69
2023/05/13 06:07:51;;;;;;;18.50;12.93;;;11.60;99.90;;;;;;5032698;28;20505;-69
2023/05/13 06:10:18;;;;;;;19.07;12.57;;;11.60;99.90;;;;;;5038074;28;20493;-69
2023/05/13 06:12:45;;;;;;;14.93;12.27;;;11.70;99.90;;;;;;5038278;28;20519;-68
2023/05/13 06:15:13;;;;;;;15.10;12.50;;;11.70;99.90;;;;;;5030177;28;20450;-68
2023/05/13 06:17:40;;;;;;;18.83;11.53;;;11.80;99.90;;;;;;5040802;28;20870;-67
2023/05/13 06:20:07;;;;;;;14.40;11.83;;;11.90;99.90;;;;;;5030857;28;20512;-68
2023/05/13 06:22:34;;;;;;;14.67;11.80;;;12.00;99.90;;;;;;5029828;28;20489;-67
2023/05/13 06:25:00;;;;;;;15.37;11.47;;;12.10;99.90;;;;;;5034953;28;20474;-68
2023/05/13 06:27:27;;;;;;;16.00;11.57;;;12.20;99.90;;;;;;5029810;28;20859;-68
2023/05/13 06:29:54;;;;;;;15.40;10.57;;;12.30;99.90;;;;;;5034523;28;20538;-69
2023/05/13 06:32:22;;;;;;;14.47;10.07;;;12.40;99.90;;;;;;5029637;28;20455;-68
2023/05/13 06:34:50;;;;;;;12.90;10.10;;;12.60;99.90;;;;;;5030282;28;20457;-68
2023/05/13 06:37:17;;;;;;;13.03;10.67;;;12.70;99.90;;;;;;5036007;28;20516;-69
2023/05/13 06:39:44;;;;;;;13.30;10.80;;;13.00;99.90;;;;;;5038471;28;20456;-69
2023/05/13 06:42:10;;;;;;;16.60;11.17;;;13.40;99.90;;;;;;5029279;28;20892;-70
2023/05/13 06:44:37;;;;;;;11.10;10.00;;;13.60;99.90;;;;;;5037740;28;20465;-69
2023/05/13 06:47:04;;;;;;;13.60;10.53;;;13.70;99.90;;;;;;5030923;28;20946;-70
2023/05/13 06:49:33;;;;;;;13.63;10.67;;;13.90;99.90;;;;;;5030378;28;20519;-70
2023/05/13 06:51:59;;;;;;;12.53;9.83;;;14.00;99.90;;;;;;5039332;28;20462;-69
2023/05/13 06:54:26;;;;;;;13.20;9.10;;;14.10;99.90;;;;;;5029194;28;20926;-70
2023/05/13 06:56:53;;;;;;;11.47;10.37;;;14.10;99.90;;;;;;5037131;28;20450;-70
2023/05/13 06:59:20;;;;;;;14.80;10.80;;;14.10;99.90;;;;;;5029185;28;20528;-70
2023/05/13 07:01:47;;;;;;;11.37;9.63;;;14.30;99.90;;;;;;5036081;28;20480;-70
2023/05/13 07:04:13;;;;;;;13.17;10.10;;;14.50;99.90;;;;;;5033484;28;20442;-70
2023/05/13 07:06:41;;;;;;;11.87;9.73;;;14.90;99.90;;;;;;5042725;28;20456;-70
2023/05/13 07:09:08;;;;;;;11.77;9.60;;;15.30;99.90;;;;;;5036168;28;20496;-70
2023/05/13 07:11:35;;;;;;;10.00;9.10;;;15.70;99.90;;;;;;5040621;28;20535;-70
2023/05/13 07:14:02;;;;;;;12.57;8.33;;;16.00;99.90;;;;;;5029938;28;20926;-70
2023/05/13 07:16:28;;;;;;;13.83;9.00;;;16.30;99.90;;;;;;5036224;28;20458;-70
2023/05/13 07:18:55;;;;;;;11.03;8.40;;;16.50;99.90;;;;;;5037521;28;20428;-69
2023/05/13 07:21:21;;;;;;;9.60;8.60;;;16.70;99.90;;;;;;5033517;28;20980;-69
2023/05/13 07:23:49;;;;;;;8.97;8.03;;;16.80;99.90;;;;;;5039280;28;20499;-69
2023/05/13 07:26:16;;;;;;;8.53;7.63;;;16.70;99.90;;;;;;5037500;28;20451;-70
2023/05/13 07:28:43;;;;;;;11.60;8.47;;;16.70;99.90;;;;;;5031363;28;20477;-70
2023/05/13 07:31:09;;;;;;;9.90;8.90;;;16.70;99.90;;;;;;5035210;28;20580;-70
2023/05/13 07:33:36;;;;;;;9.20;7.83;;;16.90;99.90;;;;;;5032226;28;20432;-70
2023/05/13 07:36:03;;;;;;;12.67;8.63;;;17.20;99.90;;;;;;5034625;28;20443;-70
2023/05/13 07:38:30;;;;;;;10.60;8.70;;;17.50;99.90;;;;;;5037948;28;20453;-70
2023/05/13 07:40:58;;;;;;;10.73;7.80;;;17.80;99.90;;;;;;5045282;28;20526;-69
2023/05/13 07:43:26;;;;;;;9.20;7.20;;;17.90;99.90;;;;;;5045563;28;20490;-69
2023/05/13 07:45:53;;;;;;;7.20;6.50;;;18.10;99.90;;;;;;5032151;28;20428;-69
2023/05/13 07:48:19;;;;;;;10.57;7.13;;;18.20;99.90;;;;;;5041524;28;20415;-69
2023/05/13 07:50:46;;;;;;;14.00;7.20;;;18.40;99.90;;;;;;5043734;28;20463;-69
2023/05/13 07:53:13;;;;;;;18.47;7.60;;;18.60;99.90;;;;;;5042869;28;20459;-69
2023/05/13 07:55:40;;;;;;;7.43;6.50;;;18.80;99.90;;;;;;5045828;28;20457;-69
2023/05/13 07:58:08;;;;;;;8.30;6.70;;;19.00;99.90;;;;;;5034599;28;20439;-70
2023/05/13 08:00:34;;;;;;;12.93;5.80;;;19.10;99.90;;;;;;5032498;28;20920;-70
2023/05/13 08:03:01;;;;;;;10.80;5.77;;;19.40;99.90;;;;;;5040032;28;20502;-71
2023/05/13 08:05:28;;;;;;;8.20;5.73;;;19.50;99.90;;;;;;5031942;28;20456;-71
2023/05/13 08:07:54;;;;;;;6.63;5.07;;;19.50;99.90;;;;;;5031789;28;20445;-68
2023/05/13 08:10:21;;;;;;;7.87;5.60;;;19.30;99.90;;;;;;5037633;28;20277;-68
2023/05/13 08:12:52;;;;;;;9.70;5.83;;;19.10;99.90;;;;;;5040411;28;20488;-68
2023/05/13 08:15:20;;;;;;;5.80;5.30;;;19.10;99.90;;;;;;5036179;28;20967;-68
2023/05/13 08:17:46;;;;;;;6.00;5.40;;;19.10;99.90;;;;;;5048276;28;20440;-68
2023/05/13 08:20:14;;;;;;;5.70;5.20;;;19.00;99.90;;;;;;5047369;28;20502;-69
2023/05/13 08:22:41;;;;;;;5.53;5.03;;;18.80;99.90;;;;;;5048629;28;20452;-69
2023/05/13 08:25:10;;;;;;;6.30;5.00;;;18.60;99.90;;;;;;5047511;28;21038;-68
2023/05/13 08:27:36;;;;;;;6.77;5.20;;;18.50;99.90;;;;;;5047829;28;20503;-69
2023/05/13 08:30:04;;;;;;;7.17;4.90;;;18.70;99.90;;;;;;5046752;28;20507;-68
2023/05/13 08:32:32;;;;;;;7.40;5.43;;;19.10;99.90;;;;;;5047960;28;20452;-69
2023/05/13 08:35:00;;;;;;;6.20;5.00;;;19.20;99.90;;;;;;5047795;28;20441;-68
2023/05/13 08:37:27;;;;;;;8.17;5.30;;;19.20;99.90;;;;;;5048020;28;20452;-68
2023/05/13 08:39:54;;;;;;;5.70;5.20;;;19.20;99.90;;;;;;5047613;28;20452;-69
2023/05/13 08:42:22;;;;;;;5.33;4.77;;;19.20;99.90;;;;;;5038499;28;20420;-69
2023/05/13 08:44:50;;;;;;;8.50;4.60;;;19.50;99.90;;;;;;5031304;28;20858;-69
2023/05/13 08:47:26;;;;;;;5.30;4.80;;;19.60;99.90;;;;;;5039294;28;20424;-68
2023/05/13 08:49:55;;;;;;;7.30;4.47;;;19.70;99.90;;;;;;5042886;28;20976;-69
2023/05/13 08:52:22;;;;;;;5.63;4.60;;;20.00;99.90;;;;;;5031490;28;20481;-69
2023/05/13 08:54:49;;;;;;;4.43;4.03;;;20.40;99.90;;;;;;5033686;28;20949;-68
2023/05/13 08:57:16;;;;;;;6.63;3.90;;;20.80;99.90;;;;;;5032601;28;20787;-69
2023/05/13 08:59:43;;;;;;;5.10;4.60;;;21.10;99.90;;;;;;5039448;28;20476;-68
2023/05/13 09:02:10;;;;;;;4.70;4.23;;;21.20;99.90;;;;;;5037865;28;20847;-69
2023/05/13 09:04:40;;;;;;;4.80;4.30;;;21.30;99.90;;;;;;5035504;28;20905;-69
2023/05/13 09:07:08;;;;;;;5.77;4.70;;;21.20;99.90;;;;;;5036823;28;20457;-69
2023/05/13 09:09:35;;;;;;;6.00;4.00;;;21.10;99.90;;;;;;5035285;28;20510;-69
2023/05/13 09:12:02;;;;;;;8.73;4.70;;;21.20;99.90;;;;;;5033546;28;20493;-68
2023/05/13 09:14:31;;;;;;;7.33;4.73;;;21.40;99.90;;;;;;5031152;28;20487;-69
2023/05/13 09:16:57;;;;;;;6.00;4.37;;;21.60;99.90;;;;;;5030624;28;20484;-69
2023/05/13 09:19:25;;;;;;;4.73;4.17;;;22.00;99.90;;;;;;5035634;28;20991;-69
2023/05/13 09:21:52;;;;;;;5.97;4.67;;;21.80;99.90;;;;;;5030798;28;20466;-69
2023/05/13 09:24:21;;;;;;;8.00;4.30;;;21.90;99.90;;;;;;5041033;28;20449;-69
2023/05/13 09:26:49;;;;;;;5.13;4.30;;;21.80;99.90;;;;;;5034807;28;20515;-70
2023/05/13 09:29:18;;;;;;;56.45;6.68;;;22.00;99.90;;;;;;5033242;28;20435;-69
2023/05/13 09:31:45;;;;;;;5.10;3.75;;;22.30;99.90;;;;;;5029406;28;20449;-69
2023/05/13 09:34:12;;;;;;;5.10;4.63;;;22.30;99.90;;;;;;5030256;28;20206;-70
2023/05/13 09:36:38;;;;;;;6.80;4.53;;;22.40;99.90;;;;;;5035223;28;20452;-70
2023/05/13 09:39:05;;;;;;;4.90;4.50;;;22.70;99.90;;;;;;5047745;28;20464;-70
2023/05/13 09:41:34;;;;;;;5.37;4.57;;;22.90;99.90;;;;;;5030580;28;20873;-69
2023/05/13 09:44:03;;;;;;;7.37;4.30;;;23.10;99.90;;;;;;5033201;28;20453;-69
2023/05/13 09:46:31;;;;;;;3.80;3.50;;;23.20;99.90;;;;;;5038288;28;20453;-69
2023/05/13 09:48:58;;;;;;;4.47;3.40;;;22.70;99.90;;;;;;5030504;28;20448;-67
2023/05/13 09:51:29;;;;;;;5.53;3.80;;;22.30;99.90;;;;;;5038290;28;20222;-69
2023/05/13 09:54:03;;;;;;;4.03;3.47;;;21.90;99.90;;;;;;5037029;28;20461;-68
2023/05/13 09:56:30;;;;;;;5.97;3.67;;;21.80;99.90;;;;;;5029308;28;20451;-68
2023/05/13 09:58:58;;;;;;;4.40;4.00;;;21.90;99.90;;;;;;5039838;28;20457;-69
2023/05/13 10:01:27;;;;;;;5.17;3.83;;;21.80;99.90;;;;;;5029262;28;21013;-69
2023/05/13 10:03:54;;;;;;;5.63;3.93;;;21.60;99.90;;;;;;5038639;28;20451;-69
2023/05/13 10:06:24;;;;;;;5.13;3.87;;;21.80;99.90;;;;;;5029455;28;20445;-68
2023/05/13 10:08:51;;;;;;;6.90;4.53;;;21.90;99.90;;;;;;5029722;28;20548;-69
2023/05/13 10:11:19;;;;;;;4.97;4.47;;;21.90;99.90;;;;;;5041535;28;20492;-68
2023/05/13 10:13:51;;;;;;;5.33;4.00;;;21.80;99.90;;;;;;5035589;28;20885;-69
2023/05/13 10:16:19;;;;;;;5.73;4.00;;;22.00;99.90;;;;;;5040946;28;20468;-69
2023/05/13 10:18:47;;;;;;;4.00;3.70;;;21.80;99.90;;;;;;5040622;28;20527;-69
2023/05/13 10:21:14;;;;;;;7.70;4.40;;;21.70;99.90;;;;;;5037466;28;20479;-68
2023/05/13 10:23:41;;;;;;;3.45;3.15;;;21.80;99.90;;;;;;5028946;28;20523;-69
2023/05/13 10:26:09;;;;;;;7.53;4.90;;;22.00;99.90;;;;;;5031487;28;20214;-70
2023/05/13 10:28:36;;;;;;;6.17;4.33;;;22.30;99.90;;;;;;5036683;28;20511;-70
2023/05/13 10:31:03;;;;;;;5.17;4.30;;;22.60;99.90;;;;;;5039502;28;20480;-69
2023/05/13 10:33:31;;;;;;;5.67;3.83;;;22.50;99.90;;;;;;5038173;28;20457;-70
2023/05/13 10:36:08;;;;;;;4.73;3.87;;;22.20;99.90;;;;;;5035712;28;20456;-70
2023/05/13 10:38:50;;;;;;;8.23;3.73;;;21.90;99.90;;;;;;5036464;28;20445;-69
2023/05/13 10:41:37;;;;;;;4.70;4.20;;;21.70;99.90;;;;;;5045715;28;21053;-69
2023/05/13 10:44:05;;;;;;;7.73;3.80;;;21.40;99.90;;;;;;5029799;28;21230;-69
2023/05/13 10:46:34;;;;;;;4.33;3.93;;;21.20;99.90;;;;;;5029727;28;20442;-69
2023/05/13 10:49:02;;;;;;;4.40;4.00;;;21.10;99.90;;;;;;5031899;28;20461;-70
2023/05/13 10:51:29;;;;;;;4.33;4.00;;;20.90;99.90;;;;;;5040151;28;20491;-70
2023/05/13 10:53:57;;;;;;;7.27;4.30;;;21.00;99.90;;;;;;5041426;28;20461;-72
2023/05/13 10:56:26;;;;;;;4.10;3.60;;;21.30;99.90;;;;;;5039616;28;20453;-71
2023/05/13 10:59:01;;;;;;;5.30;4.47;;;22.00;99.90;;;;;;5033506;28;20543;-72
2023/05/13 11:01:29;;;;;;;7.33;3.90;;;22.50;99.90;;;;;;5034888;28;20541;-71
2023/05/13 11:03:57;;;;;;;6.70;3.87;;;22.80;99.90;;;;;;5038783;28;20445;-71
2023/05/13 11:06:31;;;;;;;5.50;3.90;;;23.10;99.90;;;;;;5044559;28;21129;-71
2023/05/13 11:08:58;;;;;;;3.80;3.60;;;23.60;99.90;;;;;;5044183;28;20463;-70
2023/05/13 11:11:29;;;;;;;6.07;4.03;;;24.00;99.90;;;;;;5041619;28;20487;-70
2023/05/13 11:14:02;;;;;;;5.50;4.20;;;24.00;99.90;;;;;;5038603;28;20507;-70
2023/05/13 11:16:29;;;;;;;4.43;4.03;;;23.80;99.90;;;;;;5040478;28;20449;-69
2023/05/13 11:18:56;;;;;;;7.33;3.47;;;23.50;99.90;;;;;;5045046;28;20445;-70
2023/05/13 11:21:32;;;;;;;5.63;4.37;;;23.30;99.90;;;;;;5042274;28;20473;-69
2023/05/13 11:24:00;;;;;;;4.27;3.90;;;23.50;99.90;;;;;;5047964;28;20456;-70
2023/05/13 11:26:41;;;;;;;4.20;3.80;;;24.00;99.90;;;;;;5034316;28;20460;-70
2023/05/13 11:29:07;;;;;;;5.63;3.63;;;24.10;99.90;;;;;;5034113;28;20819;-70
2023/05/13 11:31:47;;;;;;;4.60;4.20;;;23.80;99.90;;;;;;5037735;28;20297;-70
2023/05/13 11:34:15;;;;;;;6.20;3.33;;;24.00;99.90;;;;;;5035746;28;20514;-70
2023/05/13 11:36:45;;;;;;;8.23;3.80;;;24.70;99.90;;;;;;5038360;28;20508;-70
2023/05/13 11:39:15;;;;;;;4.07;3.70;;;24.80;99.90;;;;;;5032447;28;20213;-70
2023/05/13 11:41:43;;;;;;;5.20;3.60;;;24.80;99.90;;;;;;5040960;28;20465;-69
2023/05/13 11:44:12;;;;;;;3.93;3.50;;;25.00;99.90;;;;;;5033146;28;20453;-69
2023/05/13 11:46:39;;;;;;;6.10;3.67;;;25.10;99.90;;;;;;5044964;28;20460;-69
2023/05/13 11:49:06;;;;;;;4.37;3.67;;;25.40;99.90;;;;;;5035877;28;20454;-69
2023/05/13 11:51:34;;;;;;;9.17;3.53;;;25.30;99.90;;;;;;5044519;28;20988;-70
2023/05/13 11:54:03;;;;;;;4.67;4.03;;;25.20;99.90;;;;;;5036576;28;20942;-69
2023/05/13 11:56:30;;;;;;;6.40;3.67;;;24.80;99.90;;;;;;5040823;28;20452;-69
2023/05/13 11:59:13;;;;;;;4.13;3.80;;;24.50;99.90;;;;;;5032365;28;20465;-70
2023/05/13 12:01:40;;;;;;;5.57;4.13;;;24.20;99.90;;;;;;5040862;28;20667;-70
2023/05/13 12:04:06;;;;;;;7.30;4.03;;;23.90;99.90;;;;;;5040989;28;20511;-70
2023/05/13 12:06:33;;;;;;;10.90;3.83;;;23.60;99.90;;;;;;5032525;28;20453;-72
2023/05/13 12:09:06;;;;;;;4.10;3.70;;;23.50;99.90;;;;;;5032153;28;20454;-72
2023/05/13 12:11:33;;;;;;;4.40;3.80;;;23.50;99.90;;;;;;5044051;28;20472;-72
2023/05/13 12:14:00;;;;;;;4.37;3.90;;;23.20;99.90;;;;;;5036459;28;20449;-72
2023/05/13 12:16:27;;;;;;;4.10;3.77;;;22.90;99.90;;;;;;5038163;28;20511;-72
2023/05/13 12:19:00;;;;;;;3.93;3.67;;;22.70;99.90;;;;;;5039870;28;20511;-71
2023/05/13 12:21:31;;;;;;;5.97;4.00;;;22.50;99.90;;;;;;5032915;28;20473;-72
2023/05/13 12:23:58;;;;;;;4.53;3.83;;;22.40;99.90;;;;;;5039376;28;21142;-71
2023/05/13 12:26:26;;;;;;;5.17;3.30;;;22.00;99.90;;;;;;5032784;28;20449;-72
2023/05/13 12:28:57;;;;;;;6.75;2.90;;;20.80;99.90;;;;;;5035612;28;20919;-70
2023/05/13 12:31:24;;;;;;;6.20;3.70;;;19.30;99.90;;;;;;5035485;28;20440;-70
2023/05/13 12:33:51;;;;;;;5.73;3.20;;;18.10;99.90;;;;;;5031761;28;20454;-70
2023/05/13 12:36:19;;;;;;;4.90;3.13;;;17.50;99.90;;;;;;5039921;28;20519;-70
2023/05/13 12:38:56;;;;;;;4.90;4.20;;;17.00;99.90;;;;;;5033615;28;20520;-70
2023/05/13 12:41:24;;;;;;;7.87;3.93;;;16.70;99.90;;;;;;5035878;28;20501;-70